KGCK

Garden City Regional Airport

Garden City, Kansas, USA
METAR KGCK 150254Z AUTO 36006KT 10SM CLR 18/16 A3001 RMK AO2 SLP137 T01830161 53019
Observed Flight Rules
Aug-15 @ 02:54 UTC (40 minutes ago) Visual Flight Rules
Wind Visibility Clouds
360° at 6 knots 10 miles
  • Clear skies
Temperatures Readings
Current 18°C / 64°F
Dewpoint 16°C / 61°F
Humidity 88%
Altimeter 30.01" Hg
Pressure 1013.7 hPa
Elevation 877
METAR KGCK 150254Z AUTO 36006KT 10SM CLR 18/16 A3001 RMK AO2 SLP137 T01830161 53019
Observed Flight Rules
Aug-15 @ 02:54 UTC
(40 minutes ago)
VFR
Wind Visibility
360° at 6 knots 10 miles
Clouds
  • Clear skies
Temperature Dewpoint
18°C / 64°F 16°C / 61°F
Humidity Altimeter Pressure
88% 30.01" Hg 1013.7 hPa